createdAt,value
2018-02-18T00:02:06.792Z,79.00
2018-02-18T00:04:34.431Z,78.90
2018-02-18T00:07:02.073Z,78.00
2018-02-18T00:09:29.713Z,77.80
2018-02-18T00:11:57.362Z,78.20
2018-02-18T00:14:24.999Z,77.80
2018-02-18T00:16:53.397Z,78.30
2018-02-18T00:19:21.029Z,78.30
2018-02-18T00:21:48.664Z,77.50
2018-02-18T00:24:16.301Z,77.90
2018-02-18T00:26:43.957Z,78.10
2018-02-18T00:29:11.602Z,78.10
2018-02-18T00:31:39.243Z,77.20
2018-02-18T00:34:06.873Z,77.90
2018-02-18T00:36:34.507Z,78.40
2018-02-18T00:39:02.153Z,77.90
2018-02-18T00:41:29.789Z,77.70
2018-02-18T00:43:57.429Z,78.30
2018-02-18T00:46:25.826Z,78.30
2018-02-18T00:48:53.467Z,78.20
2018-02-18T00:51:21.852Z,78.10
2018-02-18T00:53:49.496Z,78.60
2018-02-18T00:56:17.137Z,79.70
2018-02-18T00:58:44.774Z,78.30
2018-02-18T01:01:12.410Z,78.00
2018-02-18T01:03:40.045Z,78.40
2018-02-18T01:06:07.684Z,79.40
2018-02-18T01:08:35.325Z,79.10
2018-02-18T01:11:02.957Z,78.90
2018-02-18T01:13:30.580Z,78.30
2018-02-18T01:15:58.225Z,77.30
2018-02-18T01:18:26.618Z,78.90
2018-02-18T01:20:54.246Z,78.90
2018-02-18T01:23:21.885Z,79.10
2018-02-18T01:25:49.520Z,78.60
2018-02-18T01:28:17.141Z,79.10
2018-02-18T01:30:44.792Z,78.70
2018-02-18T01:33:12.455Z,79.60
2018-02-18T01:35:40.084Z,78.60
2018-02-18T01:38:07.716Z,78.30
2018-02-18T01:40:36.145Z,78.80
2018-02-18T01:43:03.787Z,78.80
2018-02-18T01:45:32.197Z,78.60
2018-02-18T01:47:59.837Z,78.50
2018-02-18T01:50:36.400Z,78.50
2018-02-18T01:53:04.032Z,78.30
2018-02-18T01:55:31.668Z,77.20
2018-02-18T01:57:59.310Z,77.60
2018-02-18T02:00:28.892Z,78.70
2018-02-18T02:02:56.550Z,77.70
2018-02-18T02:05:24.195Z,77.80
2018-02-18T02:07:51.820Z,78.00
2018-02-18T02:10:19.464Z,78.00
2018-02-18T02:12:47.868Z,78.90
2018-02-18T02:15:15.504Z,78.80
2018-02-18T02:17:43.145Z,77.30
2018-02-18T02:20:10.788Z,77.60
2018-02-18T02:22:38.428Z,77.40
2018-02-18T02:25:06.073Z,76.80
2018-02-18T02:27:33.716Z,78.10
2018-02-18T02:30:01.350Z,77.30
2018-02-18T02:32:28.984Z,78.00
2018-02-18T02:34:57.386Z,77.30
2018-02-18T02:37:25.038Z,77.30
2018-02-18T02:39:52.656Z,77.30
2018-02-18T02:42:20.308Z,77.00
2018-02-18T02:44:47.928Z,76.10
2018-02-18T02:47:16.331Z,76.50
2018-02-18T02:49:43.958Z,76.30
2018-02-18T02:52:11.606Z,76.80
2018-02-18T02:54:39.269Z,76.80
2018-02-18T02:57:06.893Z,77.40
2018-02-18T02:59:34.525Z,77.60
2018-02-18T03:02:02.185Z,77.00
2018-02-18T03:04:29.829Z,78.10
2018-02-18T03:06:57.465Z,77.70
2018-02-18T03:09:25.093Z,77.50
2018-02-18T03:11:52.737Z,77.90
2018-02-18T03:14:20.375Z,78.40
2018-02-18T03:16:48.028Z,77.40
2018-02-18T03:19:15.662Z,77.30
2018-02-18T03:21:44.073Z,76.30
2018-02-18T03:24:11.709Z,76.20
2018-02-18T03:26:39.341Z,77.90
2018-02-18T03:29:06.985Z,77.20
2018-02-18T03:31:34.613Z,77.20
2018-02-18T03:34:03.013Z,76.30
2018-02-18T03:36:31.404Z,76.90
2018-02-18T03:38:59.048Z,76.90
2018-02-18T03:41:26.696Z,77.50
2018-02-18T03:43:54.330Z,76.10
2018-02-18T03:46:21.982Z,76.10
2018-02-18T03:48:49.609Z,75.00
2018-02-18T03:51:17.253Z,77.30
2018-02-18T03:53:44.891Z,76.40
2018-02-18T03:56:12.541Z,75.10
2018-02-18T03:58:40.189Z,76.80
2018-02-18T04:01:08.593Z,77.10
2018-02-18T04:03:36.228Z,77.10
2018-02-18T04:06:04.637Z,77.00
2018-02-18T04:08:32.273Z,76.90
2018-02-18T04:10:59.904Z,76.80
2018-02-18T04:13:27.552Z,76.80
2018-02-18T04:15:55.188Z,77.30
2018-02-18T04:18:23.585Z,77.90
2018-02-18T04:20:51.233Z,77.80
2018-02-18T04:23:19.160Z,77.30
2018-02-18T04:25:46.813Z,77.30
2018-02-18T04:28:14.439Z,76.90
2018-02-18T04:30:42.847Z,75.40
2018-02-18T04:33:10.476Z,75.30
2018-02-18T04:35:38.112Z,75.70
2018-02-18T04:38:05.756Z,75.70
2018-02-18T04:40:33.397Z,76.00
2018-02-18T04:43:01.030Z,75.90
2018-02-18T04:45:28.664Z,76.60
2018-02-18T04:47:56.300Z,75.90
2018-02-18T04:50:24.201Z,75.90
2018-02-18T04:52:51.852Z,75.50
2018-02-18T04:55:19.494Z,76.30
2018-02-18T04:57:47.904Z,75.90
2018-02-18T05:00:15.546Z,75.90
2018-02-18T05:02:47.590Z,75.60
2018-02-18T05:05:15.236Z,76.00
2018-02-18T05:07:42.872Z,76.40
2018-02-18T05:10:10.505Z,75.60
2018-02-18T05:12:38.901Z,76.00
2018-02-18T05:15:06.557Z,76.00
2018-02-18T05:17:35.356Z,76.80
2018-02-18T05:20:03.371Z,76.80
2018-02-18T05:22:31.004Z,76.00
2018-02-18T05:24:58.632Z,76.40
2018-02-18T05:27:26.268Z,76.40
2018-02-18T05:29:53.969Z,76.60
2018-02-18T05:32:21.605Z,77.70
2018-02-18T05:34:49.242Z,76.60
2018-02-18T05:37:16.888Z,77.00
2018-02-18T05:39:45.288Z,77.40
2018-02-18T05:42:12.930Z,77.40
2018-02-18T05:44:41.354Z,76.90
2018-02-18T05:47:09.000Z,76.90
2018-02-18T05:49:36.632Z,78.00
2018-02-18T05:52:04.272Z,77.70
2018-02-18T05:54:31.904Z,76.70
2018-02-18T05:56:59.568Z,77.20
2018-02-18T05:59:27.176Z,77.80
2018-02-18T06:01:54.811Z,76.90
2018-02-18T06:04:22.466Z,77.10
2018-02-18T06:06:50.100Z,77.60
2018-02-18T06:09:17.754Z,76.70
2018-02-18T06:11:45.396Z,76.70
2018-02-18T06:14:13.050Z,76.50
2018-02-18T06:16:40.684Z,76.80
2018-02-18T06:19:09.088Z,76.80
2018-02-18T06:21:36.724Z,76.80
2018-02-18T06:24:04.363Z,76.30
2018-02-18T06:26:35.312Z,76.10
2018-02-18T06:29:02.943Z,76.30
2018-02-18T06:31:30.589Z,75.70
2018-02-18T06:33:58.990Z,76.60
2018-02-18T06:36:26.620Z,76.60
2018-02-18T06:38:55.036Z,76.50
2018-02-18T06:41:22.689Z,76.50
2018-02-18T06:43:50.361Z,75.90
2018-02-18T06:46:18.049Z,77.50
2018-02-18T06:48:45.665Z,76.70
2018-02-18T06:51:14.112Z,76.30
2018-02-18T06:53:41.748Z,76.30
2018-02-18T06:56:09.425Z,76.70
2018-02-18T06:58:37.053Z,77.60
2018-02-18T07:01:05.449Z,77.10
2018-02-18T07:03:33.126Z,77.10
2018-02-18T07:06:00.760Z,76.40
2018-02-18T07:08:28.398Z,76.50
2018-02-18T07:10:56.044Z,76.50
2018-02-18T07:13:23.673Z,77.50
2018-02-18T07:15:51.325Z,77.50
2018-02-18T07:18:19.743Z,77.80
2018-02-18T07:20:47.396Z,77.30
2018-02-18T07:23:15.788Z,76.70
2018-02-18T07:25:43.423Z,76.70
2018-02-18T07:28:11.053Z,76.80
2018-02-18T07:30:38.751Z,77.80
2018-02-18T07:33:06.329Z,77.80
2018-02-18T07:35:34.732Z,78.70
2018-02-18T07:38:02.369Z,78.60
2018-02-18T07:40:30.000Z,78.50
2018-02-18T07:42:57.644Z,78.40
2018-02-18T07:45:26.024Z,79.00
2018-02-18T07:47:53.661Z,79.00
2018-02-18T07:50:22.062Z,79.40
2018-02-18T07:53:01.745Z,79.30
2018-02-18T07:55:29.376Z,78.90
2018-02-18T07:57:57.004Z,79.20
2018-02-18T08:00:35.279Z,79.90
2018-02-18T08:03:02.912Z,79.60
2018-02-18T08:05:30.545Z,80.00
2018-02-18T08:07:58.181Z,79.20
2018-02-18T08:10:25.825Z,80.10
2018-02-18T08:12:53.457Z,80.30
2018-02-18T08:15:21.093Z,79.70
2018-02-18T08:17:48.727Z,80.40
2018-02-18T08:20:16.352Z,79.90
2018-02-18T08:22:44.253Z,80.80
2018-02-18T08:25:11.893Z,81.10
2018-02-18T08:27:40.337Z,81.00
2018-02-18T08:30:07.977Z,80.90
2018-02-18T08:32:35.613Z,80.00
2018-02-18T08:35:04.016Z,81.20
2018-02-18T08:37:31.666Z,81.20
2018-02-18T08:40:00.068Z,81.30
2018-02-18T08:42:27.712Z,81.40
2018-02-18T08:44:56.113Z,81.80
2018-02-18T08:47:23.757Z,81.80
2018-02-18T08:49:52.176Z,80.80
2018-02-18T08:52:19.808Z,80.80
2018-02-18T08:54:48.215Z,81.20
2018-02-18T08:57:15.853Z,81.10
2018-02-18T08:59:44.253Z,82.00
2018-02-18T09:02:12.685Z,81.40
2018-02-18T09:04:40.333Z,81.40
2018-02-18T09:07:07.971Z,81.80
2018-02-18T09:09:36.394Z,81.50
2018-02-18T09:12:04.024Z,81.50
2018-02-18T09:14:31.656Z,81.20
2018-02-18T09:16:59.296Z,81.30
2018-02-18T09:19:26.928Z,80.60
2018-02-18T09:21:54.572Z,79.90
2018-02-18T09:24:22.192Z,80.00
2018-02-18T09:26:49.829Z,79.10
2018-02-18T09:29:17.468Z,75.80
2018-02-18T09:31:45.092Z,76.50
2018-02-18T09:34:12.721Z,76.90
2018-02-18T09:36:41.105Z,74.00
2018-02-18T09:39:08.745Z,74.00
2018-02-18T09:41:36.686Z,71.40
2018-02-18T09:44:15.237Z,69.20
2018-02-18T09:46:42.877Z,65.40
2018-02-18T09:49:10.500Z,64.80
2018-02-18T09:51:38.133Z,62.80
2018-02-18T09:54:05.755Z,61.20
2018-02-18T09:56:33.394Z,62.90
2018-02-18T09:59:01.784Z,59.40
2018-02-18T10:01:31.354Z,59.40
2018-02-18T10:03:58.977Z,58.80
2018-02-18T10:06:26.606Z,59.30
2018-02-18T10:08:55.802Z,59.20
2018-02-18T10:11:29.592Z,57.30
2018-02-18T10:13:57.224Z,57.20
2018-02-18T10:16:24.846Z,58.70
2018-02-18T10:18:53.240Z,56.50
2018-02-18T10:21:20.878Z,56.50
2018-02-18T10:23:48.521Z,56.90
2018-02-18T10:26:16.140Z,57.00
2018-02-18T10:28:43.769Z,55.50
2018-02-18T10:31:11.398Z,54.60
2018-02-18T10:33:39.336Z,55.00
2018-02-18T10:36:07.762Z,54.60
2018-02-18T10:38:36.105Z,55.60
2018-02-18T10:41:15.697Z,55.60
2018-02-18T10:43:43.331Z,54.70
2018-02-18T10:46:10.957Z,55.40
2018-02-18T10:48:38.596Z,53.50
2018-02-18T10:51:06.221Z,54.60
2018-02-18T10:53:33.850Z,54.80
2018-02-18T10:56:01.476Z,53.40
2018-02-18T10:58:29.103Z,53.60
2018-02-18T11:00:57.502Z,52.20
2018-02-18T11:03:25.147Z,52.20
2018-02-18T11:05:52.809Z,53.10
2018-02-18T11:08:21.239Z,51.00
2018-02-18T11:10:49.281Z,51.00
2018-02-18T11:13:24.353Z,51.70
2018-02-18T11:15:51.991Z,51.70
2018-02-18T11:18:19.633Z,53.00
2018-02-18T11:20:48.036Z,51.30
2018-02-18T11:23:16.441Z,49.50
2018-02-18T11:25:46.853Z,51.50
2018-02-18T11:28:14.517Z,51.50
2018-02-18T11:30:42.148Z,50.90
2018-02-18T11:33:09.768Z,48.40
2018-02-18T11:35:37.401Z,47.70
2018-02-18T11:38:05.816Z,50.00
2018-02-18T11:40:33.444Z,50.20
2018-02-18T11:43:01.840Z,46.50
2018-02-18T11:45:30.228Z,46.10
2018-02-18T11:47:57.846Z,46.00
2018-02-18T11:50:25.473Z,47.70
2018-02-18T11:52:53.101Z,43.80
2018-02-18T11:55:21.489Z,43.60
2018-02-18T11:57:49.125Z,43.50
2018-02-18T12:00:16.745Z,43.90
2018-02-18T12:02:49.608Z,45.00
2018-02-18T12:05:17.241Z,44.50
2018-02-18T12:07:44.869Z,46.30
2018-02-18T12:10:12.489Z,43.90
2018-02-18T12:12:40.117Z,42.60
2018-02-18T12:15:07.745Z,40.90
2018-02-18T12:17:36.137Z,42.40
2018-02-18T12:20:03.777Z,42.30
2018-02-18T12:22:36.773Z,41.20
2018-02-18T12:25:05.181Z,37.60
2018-02-18T12:27:32.829Z,37.50
2018-02-18T12:30:01.232Z,40.10
2018-02-18T12:32:28.857Z,40.10
2018-02-18T12:34:56.503Z,39.70
2018-02-18T12:37:24.128Z,39.80
2018-02-18T12:39:51.769Z,37.70
2018-02-18T12:42:19.399Z,35.40
2018-02-18T12:44:47.024Z,36.10
2018-02-18T12:47:14.669Z,33.30
2018-02-18T12:49:43.066Z,31.30
2018-02-18T12:52:11.468Z,32.40
2018-02-18T12:54:39.182Z,32.20
2018-02-18T12:57:06.771Z,33.10
2018-02-18T12:59:34.409Z,32.70
2018-02-18T13:02:02.059Z,31.60
2018-02-18T13:04:30.716Z,30.90
2018-02-18T13:06:58.356Z,30.50
2018-02-18T13:09:25.980Z,30.00
2018-02-18T13:11:53.614Z,28.50
2018-02-18T13:14:21.248Z,28.60
2018-02-18T13:16:48.897Z,28.20
2018-02-18T13:19:16.551Z,28.80
2018-02-18T13:21:44.184Z,27.10
2018-02-18T13:24:12.384Z,29.40
2018-02-18T13:26:41.010Z,29.20
2018-02-18T13:29:08.637Z,27.50
2018-02-18T13:31:36.270Z,26.90
2018-02-18T13:34:08.821Z,29.30
2018-02-18T13:36:36.452Z,27.60
2018-02-18T13:39:04.085Z,26.90
2018-02-18T13:41:31.718Z,28.90
2018-02-18T13:44:00.126Z,31.30
2018-02-18T13:46:28.573Z,35.50
2018-02-18T13:48:56.204Z,35.40
2018-02-18T13:51:23.839Z,32.90
2018-02-18T13:53:51.724Z,31.80
2018-02-18T13:56:19.742Z,30.40
2018-02-18T13:58:47.385Z,33.10
2018-02-18T14:01:15.021Z,33.90
2018-02-18T14:03:54.288Z,29.90
2018-02-18T14:06:21.925Z,29.80
2018-02-18T14:08:49.572Z,28.60
2018-02-18T14:11:17.622Z,27.30
2018-02-18T14:13:45.239Z,27.00
2018-02-18T14:16:12.865Z,27.40
2018-02-18T14:18:40.515Z,29.30
2018-02-18T14:21:08.160Z,32.40
2018-02-18T14:23:35.797Z,31.50
2018-02-18T14:26:03.466Z,33.20
2018-02-18T14:28:31.853Z,32.70
2018-02-18T14:30:59.517Z,32.80
2018-02-18T14:33:27.153Z,31.90
2018-02-18T14:35:54.788Z,30.90
2018-02-18T14:38:22.440Z,31.00
2018-02-18T14:40:50.083Z,31.80
2018-02-18T14:43:29.631Z,31.80
2018-02-18T14:46:09.157Z,32.60
2018-02-18T14:48:48.689Z,33.40
2018-02-18T14:51:28.928Z,35.90
2018-02-18T14:54:09.188Z,35.80
2018-02-18T14:59:30.525Z,35.70
2018-02-18T15:01:59.022Z,37.60
2018-02-18T15:04:27.013Z,37.50
2018-02-18T15:06:54.705Z,40.60
2018-02-18T15:09:22.309Z,39.60
2018-02-18T15:11:50.744Z,39.30
2018-02-18T15:14:19.102Z,38.20
2018-02-18T15:16:46.742Z,38.10
2018-02-18T15:19:15.121Z,38.80
2018-02-18T15:21:43.520Z,42.60
2018-02-18T15:24:11.149Z,42.60
2018-02-18T15:26:39.156Z,39.50
2018-02-18T15:29:06.785Z,40.10
2018-02-18T15:31:34.413Z,42.70
2018-02-18T15:34:03.054Z,42.20
2018-02-18T15:36:30.673Z,43.70
2018-02-18T15:38:58.307Z,43.60
2018-02-18T15:41:26.688Z,41.60
2018-02-18T15:43:55.470Z,40.70
2018-02-18T15:46:23.879Z,41.90
2018-02-18T15:48:51.513Z,41.90
2018-02-18T15:51:19.147Z,43.00
2018-02-18T15:53:46.792Z,42.80
2018-02-18T15:56:16.348Z,44.70
2018-02-18T15:58:43.974Z,45.00
2018-02-18T16:01:11.596Z,45.10
2018-02-18T16:03:39.987Z,43.60
2018-02-18T16:06:07.649Z,43.60
2018-02-18T16:08:36.041Z,43.00
2018-02-18T16:11:03.668Z,43.00
2018-02-18T16:16:18.370Z,44.50
2018-02-18T16:18:46.752Z,43.90
2018-02-18T16:21:15.154Z,46.10
2018-02-18T16:23:42.788Z,46.30
2018-02-18T16:26:10.416Z,50.00
2018-02-18T16:28:38.054Z,48.30
2018-02-18T16:31:05.686Z,50.10
2018-02-18T16:33:33.304Z,48.60
2018-02-18T16:36:00.931Z,54.00
2018-02-18T16:38:29.324Z,47.30
2018-02-18T16:40:56.946Z,47.10
2018-02-18T16:43:24.565Z,53.10
2018-02-18T16:45:52.201Z,49.90
2018-02-18T16:48:20.118Z,51.30
2018-02-18T16:50:47.764Z,49.80
2018-02-18T16:53:15.393Z,51.30
2018-02-18T16:55:51.345Z,54.60
2018-02-18T16:58:18.970Z,55.20
2018-02-18T17:00:46.605Z,56.40
2018-02-18T17:03:15.003Z,53.80
2018-02-18T17:05:54.164Z,53.70
2018-02-18T17:08:21.792Z,57.40
2018-02-18T17:10:50.178Z,59.30
2018-02-18T17:13:17.800Z,59.30
2018-02-18T17:15:49.162Z,58.70
2018-02-18T17:18:16.786Z,59.80
2018-02-18T17:21:03.031Z,57.50
2018-02-18T17:23:30.679Z,59.40
2018-02-18T17:25:58.304Z,59.80
2018-02-18T17:28:25.923Z,56.90
2018-02-18T17:30:54.341Z,61.10
2018-02-18T17:33:34.625Z,61.10
2018-02-18T17:36:02.410Z,61.00
2018-02-18T17:38:30.570Z,63.70
2018-02-18T17:40:58.181Z,62.70
2018-02-18T17:43:25.822Z,61.60
2018-02-18T17:45:53.449Z,62.20
2018-02-18T17:48:21.060Z,63.90
2018-02-18T17:50:48.986Z,63.00
2018-02-18T17:53:16.621Z,63.40
2018-02-18T17:55:45.024Z,64.00
2018-02-18T17:58:12.981Z,64.00
2018-02-18T18:00:41.432Z,64.90
2018-02-18T18:03:09.057Z,65.00
2018-02-18T18:05:36.680Z,63.80
2018-02-18T18:08:04.340Z,64.10
2018-02-18T18:10:31.981Z,65.20
2018-02-18T18:12:59.605Z,64.40
2018-02-18T18:15:27.251Z,64.20
2018-02-18T18:17:54.892Z,64.70
2018-02-18T18:20:22.537Z,66.40
2018-02-18T18:22:50.172Z,66.10
2018-02-18T18:25:18.568Z,67.80
2018-02-18T18:27:48.133Z,67.80
2018-02-18T18:30:15.772Z,66.50
2018-02-18T18:32:43.416Z,67.80
2018-02-18T18:35:11.063Z,68.50
2018-02-18T18:37:39.453Z,65.90
2018-02-18T18:40:07.076Z,65.70
2018-02-18T18:42:34.718Z,67.10
2018-02-18T18:45:02.369Z,67.10
2018-02-18T18:47:30.000Z,68.10
2018-02-18T18:49:58.089Z,68.00
2018-02-18T18:52:25.725Z,68.80
2018-02-18T18:54:53.362Z,67.80
2018-02-18T18:57:26.501Z,68.40
2018-02-18T18:59:54.912Z,68.70
2018-02-18T19:02:22.582Z,68.70
2018-02-18T19:04:50.219Z,68.20
2018-02-18T19:07:18.184Z,69.50
2018-02-18T19:09:45.825Z,70.70
2018-02-18T19:12:13.485Z,70.30
2018-02-18T19:14:41.141Z,70.10
2018-02-18T19:17:08.786Z,69.90
2018-02-18T19:19:36.433Z,69.50
2018-02-18T19:22:04.824Z,69.30
2018-02-18T19:24:32.501Z,69.20
2018-02-18T19:27:00.147Z,69.00
2018-02-18T19:29:28.547Z,68.90
2018-02-18T19:31:56.218Z,69.00
2018-02-18T19:34:23.862Z,69.00
2018-02-18T19:36:51.510Z,67.10
2018-02-18T19:39:19.133Z,68.20
2018-02-18T19:41:46.781Z,67.80
2018-02-18T19:44:14.422Z,67.60
2018-02-18T19:46:42.858Z,65.00
2018-02-18T19:49:10.528Z,64.90
2018-02-18T19:51:38.170Z,64.90
2018-02-18T19:54:05.830Z,64.30
2018-02-18T19:56:33.484Z,65.40
2018-02-18T19:59:01.120Z,67.00
2018-02-18T20:01:28.808Z,65.90
2018-02-18T20:03:56.431Z,65.20
2018-02-18T20:06:24.071Z,65.60
2018-02-18T20:08:51.730Z,64.40
2018-02-18T20:11:20.125Z,63.50
2018-02-18T20:13:47.772Z,63.10
2018-02-18T20:16:15.469Z,63.20
2018-02-18T20:18:43.094Z,61.80
2018-02-18T20:21:11.509Z,61.60
2018-02-18T20:23:39.123Z,61.50
2018-02-18T20:26:06.758Z,63.50
2018-02-18T20:28:36.404Z,62.80
2018-02-18T20:31:04.989Z,62.70
2018-02-18T20:33:32.617Z,62.10
2018-02-18T20:36:00.252Z,61.10
2018-02-18T20:38:27.890Z,63.80
2018-02-18T20:40:56.285Z,64.10
2018-02-18T20:43:24.686Z,61.90
2018-02-18T20:45:52.318Z,61.90
2018-02-18T20:48:19.958Z,63.90
2018-02-18T20:50:47.597Z,61.60
2018-02-18T20:53:15.221Z,61.40
2018-02-18T20:55:42.877Z,63.10
2018-02-18T20:58:10.525Z,62.10
2018-02-18T21:00:38.169Z,63.00
2018-02-18T21:03:05.797Z,61.70
2018-02-18T21:05:34.191Z,63.20
2018-02-18T21:08:01.841Z,63.00
2018-02-18T21:10:30.269Z,63.20
2018-02-18T21:12:57.894Z,63.10
2018-02-18T21:15:27.281Z,62.10
2018-02-18T21:17:54.905Z,62.10
2018-02-18T21:20:22.603Z,62.10
2018-02-18T21:22:50.190Z,62.20
2018-02-18T21:25:17.829Z,62.00
2018-02-18T21:27:45.463Z,62.40
2018-02-18T21:30:13.081Z,62.50
2018-02-18T21:32:41.486Z,62.40
2018-02-18T21:35:09.881Z,63.20
2018-02-18T21:37:37.512Z,63.20
2018-02-18T21:40:05.172Z,64.30
2018-02-18T21:42:32.833Z,62.00
2018-02-18T21:45:00.617Z,62.90
2018-02-18T21:47:28.262Z,65.00
2018-02-18T21:49:55.908Z,63.90
2018-02-18T21:52:23.533Z,62.70
2018-02-18T21:54:51.974Z,62.70
2018-02-18T21:57:19.589Z,62.60
2018-02-18T21:59:48.000Z,62.50
2018-02-18T22:02:15.644Z,62.50
2018-02-18T22:04:44.028Z,62.20
2018-02-18T22:07:11.673Z,62.20
2018-02-18T22:09:39.288Z,62.60
2018-02-18T22:12:06.914Z,63.40
2018-02-18T22:14:35.310Z,64.50
2018-02-18T22:17:03.705Z,63.10
2018-02-18T22:19:31.360Z,63.00
2018-02-18T22:21:58.996Z,64.10
2018-02-18T22:24:26.622Z,64.70
2018-02-18T22:26:54.249Z,66.80
2018-02-18T22:29:22.674Z,67.40
2018-02-18T22:31:50.298Z,67.40
2018-02-18T22:34:17.933Z,68.50
2018-02-18T22:36:45.553Z,69.40
2018-02-18T22:39:13.232Z,69.70
2018-02-18T22:41:40.857Z,69.00
2018-02-18T22:44:09.252Z,70.00
2018-02-18T22:46:41.402Z,70.00
2018-02-18T22:49:09.804Z,72.50
2018-02-18T22:51:37.425Z,71.60
2018-02-18T22:54:05.069Z,70.80
2018-02-18T22:56:32.781Z,71.60
2018-02-18T22:59:01.197Z,71.00
2018-02-18T23:01:28.845Z,70.90
2018-02-18T23:03:57.251Z,71.30
2018-02-18T23:06:24.869Z,71.30
2018-02-18T23:08:52.497Z,70.50
2018-02-18T23:11:20.138Z,72.30
2018-02-18T23:13:48.525Z,72.50
2018-02-18T23:16:16.157Z,72.50
2018-02-18T23:18:43.814Z,71.40
2018-02-18T23:21:11.441Z,71.10
2018-02-18T23:23:39.082Z,71.40
2018-02-18T23:26:07.484Z,70.50
2018-02-18T23:28:35.121Z,70.40
2018-02-18T23:31:03.508Z,69.50
2018-02-18T23:33:31.904Z,69.00
2018-02-18T23:35:59.533Z,68.90
2018-02-18T23:38:27.164Z,67.20
2018-02-18T23:40:54.792Z,67.70
2018-02-18T23:43:22.428Z,67.40
2018-02-18T23:45:50.064Z,66.70
2018-02-18T23:48:17.706Z,67.90
2018-02-18T23:50:45.336Z,66.50
2018-02-18T23:53:13.771Z,68.10
2018-02-18T23:55:41.412Z,68.10
2018-02-18T23:58:09.036Z,68.50
